sensor_id;sensor_type;location;lat;lon;timestamp;pressure;altitude;pressure_sealevel;temperature;humidity
57048;BME280;42934;54.294;18.598;2024-01-30T00:00:07;102133.25;;;3.35;77.40
57048;BME280;42934;54.294;18.598;2024-01-30T00:02:58;102135.75;;;3.29;77.44
57048;BME280;42934;54.294;18.598;2024-01-30T00:05:28;102148.72;;;3.29;77.65
57048;BME280;42934;54.294;18.598;2024-01-30T00:07:57;102152.09;;;3.25;77.18
57048;BME280;42934;54.294;18.598;2024-01-30T00:10:27;102159.03;;;3.24;77.58
57048;BME280;42934;54.294;18.598;2024-01-30T00:12:57;102148.63;;;3.24;77.50
57048;BME280;42934;54.294;18.598;2024-01-30T00:15:26;102147.84;;;3.27;77.51
57048;BME280;42934;54.294;18.598;2024-01-30T00:17:55;102145.97;;;3.21;77.22
57048;BME280;42934;54.294;18.598;2024-01-30T00:20:25;102151.09;;;3.18;77.47
57048;BME280;42934;54.294;18.598;2024-01-30T00:22:54;102157.91;;;3.14;77.41
57048;BME280;42934;54.294;18.598;2024-01-30T00:25:23;102158.75;;;3.12;77.47
57048;BME280;42934;54.294;18.598;2024-01-30T00:27:53;102151.78;;;3.09;77.50
57048;BME280;42934;54.294;18.598;2024-01-30T00:30:23;102149.94;;;3.05;77.59
57048;BME280;42934;54.294;18.598;2024-01-30T00:32:53;102142.94;;;3.03;77.57
57048;BME280;42934;54.294;18.598;2024-01-30T00:35:24;102149.84;;;3.01;77.70
57048;BME280;42934;54.294;18.598;2024-01-30T00:37:54;102152.38;;;2.98;77.67
57048;BME280;42934;54.294;18.598;2024-01-30T00:40:24;102156.72;;;2.99;77.50
57048;BME280;42934;54.294;18.598;2024-01-30T00:42:53;102153.19;;;2.96;77.90
57048;BME280;42934;54.294;18.598;2024-01-30T00:45:23;102156.66;;;2.95;77.41
57048;BME280;42934;54.294;18.598;2024-01-30T00:47:52;102154.91;;;2.94;77.54
57048;BME280;42934;54.294;18.598;2024-01-30T00:50:22;102159.16;;;2.92;77.73
57048;BME280;42934;54.294;18.598;2024-01-30T00:52:51;102158.25;;;2.90;77.74
57048;BME280;42934;54.294;18.598;2024-01-30T00:55:20;102158.19;;;2.87;77.94
57048;BME280;42934;54.294;18.598;2024-01-30T00:57:49;102149.41;;;2.82;77.45
57048;BME280;42934;54.294;18.598;2024-01-30T01:00:19;102145.78;;;2.74;77.28
57048;BME280;42934;54.294;18.598;2024-01-30T01:02:50;102144.00;;;2.71;77.54
57048;BME280;42934;54.294;18.598;2024-01-30T01:05:19;102153.44;;;2.69;77.98
57048;BME280;42934;54.294;18.598;2024-01-30T01:07:48;102149.97;;;2.69;77.94
57048;BME280;42934;54.294;18.598;2024-01-30T01:10:18;102155.09;;;2.67;77.85
57048;BME280;42934;54.294;18.598;2024-01-30T01:12:47;102145.56;;;2.65;77.73
57048;BME280;42934;54.294;18.598;2024-01-30T01:15:17;102134.94;;;2.54;77.73
57048;BME280;42934;54.294;18.598;2024-01-30T01:17:46;102146.25;;;2.58;77.58
57048;BME280;42934;54.294;18.598;2024-01-30T01:20:17;102148.84;;;2.58;77.67
57048;BME280;42934;54.294;18.598;2024-01-30T01:22:46;102156.53;;;2.55;77.53
57048;BME280;42934;54.294;18.598;2024-01-30T01:25:16;102157.38;;;2.54;77.96
57048;BME280;42934;54.294;18.598;2024-01-30T01:27:45;102153.00;;;2.51;77.44
57048;BME280;42934;54.294;18.598;2024-01-30T01:30:19;102163.31;;;2.49;78.00
57048;BME280;42934;54.294;18.598;2024-01-30T01:32:50;102158.97;;;2.48;77.98
57048;BME280;42934;54.294;18.598;2024-01-30T01:35:25;102144.22;;;2.46;77.44
57048;BME280;42934;54.294;18.598;2024-01-30T01:37:54;102151.13;;;2.45;77.66
57048;BME280;42934;54.294;18.598;2024-01-30T01:40:24;102151.06;;;2.44;77.70
57048;BME280;42934;54.294;18.598;2024-01-30T01:42:55;102154.53;;;2.43;77.79
57048;BME280;42934;54.294;18.598;2024-01-30T01:45:24;102150.19;;;2.42;77.75
57048;BME280;42934;54.294;18.598;2024-01-30T01:47:54;102146.66;;;2.40;77.93
57048;BME280;42934;54.294;18.598;2024-01-30T01:50:25;102147.53;;;2.39;77.46
57048;BME280;42934;54.294;18.598;2024-01-30T01:52:55;102146.59;;;2.37;77.92
57048;BME280;42934;54.294;18.598;2024-01-30T01:55:25;102144.81;;;2.34;77.57
57048;BME280;42934;54.294;18.598;2024-01-30T01:57:56;102142.22;;;2.34;78.50
57048;BME280;42934;54.294;18.598;2024-01-30T02:00:25;102143.94;;;2.34;78.41
57048;BME280;42934;54.294;18.598;2024-01-30T02:02:55;102143.88;;;2.32;78.25
57048;BME280;42934;54.294;18.598;2024-01-30T02:05:27;102145.50;;;2.28;78.05
57048;BME280;42934;54.294;18.598;2024-01-30T02:07:56;102140.34;;;2.28;78.47
57048;BME280;42934;54.294;18.598;2024-01-30T02:10:26;102138.59;;;2.27;78.00
57048;BME280;42934;54.294;18.598;2024-01-30T02:12:55;102122.09;;;2.24;78.03
57048;BME280;42934;54.294;18.598;2024-01-30T02:15:25;102122.03;;;2.22;78.54
57048;BME280;42934;54.294;18.598;2024-01-30T02:17:54;102115.94;;;2.20;78.12
57048;BME280;42934;54.294;18.598;2024-01-30T02:20:25;102114.25;;;2.21;78.44
57048;BME280;42934;54.294;18.598;2024-01-30T02:22:59;102111.72;;;2.24;78.84
57048;BME280;42934;54.294;18.598;2024-01-30T02:25:35;102105.75;;;2.26;78.40
57048;BME280;42934;54.294;18.598;2024-01-30T02:28:05;102105.78;;;2.28;78.19
57048;BME280;42934;54.294;18.598;2024-01-30T02:30:35;102110.97;;;2.28;78.56
57048;BME280;42934;54.294;18.598;2024-01-30T02:33:07;102103.16;;;2.26;78.10
57048;BME280;42934;54.294;18.598;2024-01-30T02:35:36;102100.56;;;2.26;78.28
57048;BME280;42934;54.294;18.598;2024-01-30T02:38:07;102099.72;;;2.27;78.68
57048;BME280;42934;54.294;18.598;2024-01-30T02:40:36;102102.22;;;2.24;78.11
57048;BME280;42934;54.294;18.598;2024-01-30T02:43:05;102110.00;;;2.24;78.26
57048;BME280;42934;54.294;18.598;2024-01-30T02:45:35;102099.66;;;2.24;78.50
57048;BME280;42934;54.294;18.598;2024-01-30T02:48:04;102097.06;;;2.26;78.80
57048;BME280;42934;54.294;18.598;2024-01-30T02:50:34;102099.66;;;2.24;78.50
57048;BME280;42934;54.294;18.598;2024-01-30T02:53:03;102093.59;;;2.25;79.01
57048;BME280;42934;54.294;18.598;2024-01-30T02:55:34;102101.44;;;2.27;78.88
57048;BME280;42934;54.294;18.598;2024-01-30T02:58:03;102105.78;;;2.28;79.11
57048;BME280;42934;54.294;18.598;2024-01-30T03:00:33;102104.06;;;2.28;79.11
57048;BME280;42934;54.294;18.598;2024-01-30T03:03:03;102098.00;;;2.28;78.97
57048;BME280;42934;54.294;18.598;2024-01-30T03:05:34;102101.47;;;2.28;79.22
57048;BME280;42934;54.294;18.598;2024-01-30T03:08:05;102098.06;;;2.30;79.35
57048;BME280;42934;54.294;18.598;2024-01-30T03:10:36;102106.69;;;2.30;79.06
57048;BME280;42934;54.294;18.598;2024-01-30T03:13:05;102106.69;;;2.30;78.76
57048;BME280;42934;54.294;18.598;2024-01-30T03:15:35;102110.09;;;2.29;79.37
57048;BME280;42934;54.294;18.598;2024-01-30T03:18:05;102111.81;;;2.28;79.59
57048;BME280;42934;54.294;18.598;2024-01-30T03:20:34;102106.63;;;2.27;79.65
57048;BME280;42934;54.294;18.598;2024-01-30T03:23:03;102112.63;;;2.26;79.62
57048;BME280;42934;54.294;18.598;2024-01-30T03:25:34;102109.16;;;2.25;79.28
57048;BME280;42934;54.294;18.598;2024-01-30T03:28:04;102110.81;;;2.23;79.16
57048;BME280;42934;54.294;18.598;2024-01-30T03:30:34;102108.22;;;2.22;79.83
57048;BME280;42934;54.294;18.598;2024-01-30T03:33:03;102109.88;;;2.20;79.33
57048;BME280;42934;54.294;18.598;2024-01-30T03:35:32;102107.25;;;2.18;79.31
57048;BME280;42934;54.294;18.598;2024-01-30T03:38:01;102107.25;;;2.18;79.43
57048;BME280;42934;54.294;18.598;2024-01-30T03:40:31;102108.06;;;2.16;79.36
57048;BME280;42934;54.294;18.598;2024-01-30T03:43:01;102102.81;;;2.14;79.44
57048;BME280;42934;54.294;18.598;2024-01-30T03:45:31;102105.31;;;2.10;79.38
57048;BME280;42934;54.294;18.598;2024-01-30T03:48:00;102102.66;;;2.08;79.50
57048;BME280;42934;54.294;18.598;2024-01-30T03:50:29;102106.06;;;2.05;79.13
57048;BME280;42934;54.294;18.598;2024-01-30T03:52:58;102098.25;;;2.04;79.13
57048;BME280;42934;54.294;18.598;2024-01-30T03:55:28;102098.19;;;2.01;78.71
57048;BME280;42934;54.294;18.598;2024-01-30T03:57:57;102107.59;;;1.97;78.93
57048;BME280;42934;54.294;18.598;2024-01-30T04:00:27;102111.78;;;1.94;79.58
57048;BME280;42934;54.294;18.598;2024-01-30T04:02:56;102110.97;;;1.95;79.27
57048;BME280;42934;54.294;18.598;2024-01-30T04:05:26;102107.53;;;1.96;78.94
57048;BME280;42934;54.294;18.598;2024-01-30T04:07:55;102103.28;;;1.98;79.00
57048;BME280;42934;54.294;18.598;2024-01-30T04:10:24;102095.53;;;1.98;79.40
57048;BME280;42934;54.294;18.598;2024-01-30T04:12:53;102096.41;;;2.00;79.24
57048;BME280;42934;54.294;18.598;2024-01-30T04:15:23;102104.19;;;2.00;79.24
57048;BME280;42934;54.294;18.598;2024-01-30T04:17:54;102100.78;;;2.01;79.12
57048;BME280;42934;54.294;18.598;2024-01-30T04:20:26;102107.63;;;1.99;79.13
57048;BME280;42934;54.294;18.598;2024-01-30T04:22:55;102102.41;;;1.97;79.03
57048;BME280;42934;54.294;18.598;2024-01-30T04:25:24;102098.91;;;1.95;79.26
57048;BME280;42934;54.294;18.598;2024-01-30T04:27:53;102104.09;;;1.97;79.06
57048;BME280;42934;54.294;18.598;2024-01-30T04:30:23;102096.31;;;1.95;79.46
57048;BME280;42934;54.294;18.598;2024-01-30T04:32:53;102095.53;;;1.98;79.29
57048;BME280;42934;54.294;18.598;2024-01-30T04:35:22;102098.94;;;1.97;78.99
57048;BME280;42934;54.294;18.598;2024-01-30T04:37:53;102094.66;;;1.97;79.23
57048;BME280;42934;54.294;18.598;2024-01-30T04:40:22;102100.72;;;1.99;78.94
57048;BME280;42934;54.294;18.598;2024-01-30T04:42:51;102106.03;;;2.04;79.18
57048;BME280;42934;54.294;18.598;2024-01-30T04:45:21;102105.19;;;2.05;79.48
57048;BME280;42934;54.294;18.598;2024-01-30T04:47:50;102103.44;;;2.04;78.82
57048;BME280;42934;54.294;18.598;2024-01-30T04:50:20;102106.78;;;2.00;79.77
57048;BME280;42934;54.294;18.598;2024-01-30T04:52:49;102095.53;;;1.99;79.43
57048;BME280;42934;54.294;18.598;2024-01-30T04:55:19;102109.28;;;1.97;79.31
57048;BME280;42934;54.294;18.598;2024-01-30T04:57:50;102099.81;;;1.97;79.70
57048;BME280;42934;54.294;18.598;2024-01-30T05:00:20;102105.91;;;1.99;79.53
57048;BME280;42934;54.294;18.598;2024-01-30T05:02:49;102102.44;;;1.99;79.65
57048;BME280;42934;54.294;18.598;2024-01-30T05:05:19;102104.19;;;2.00;79.79
57048;BME280;42934;54.294;18.598;2024-01-30T05:07:49;102103.28;;;1.98;79.58
57048;BME280;42934;54.294;18.598;2024-01-30T05:10:18;102098.97;;;1.98;80.08
57048;BME280;42934;54.294;18.598;2024-01-30T05:12:47;102093.81;;;2.00;79.59
57048;BME280;42934;54.294;18.598;2024-01-30T05:15:17;102090.44;;;2.02;79.71
57048;BME280;42934;54.294;18.598;2024-01-30T05:17:46;102082.78;;;2.07;80.06
57048;BME280;42934;54.294;18.598;2024-01-30T05:20:16;102091.50;;;2.09;80.25
57048;BME280;42934;54.294;18.598;2024-01-30T05:22:47;102085.47;;;2.12;80.73
57048;BME280;42934;54.294;18.598;2024-01-30T05:25:16;102087.19;;;2.10;80.42
57048;BME280;42934;54.294;18.598;2024-01-30T05:27:45;102084.59;;;2.10;80.07
57048;BME280;42934;54.294;18.598;2024-01-30T05:30:15;102089.78;;;2.11;80.48
57048;BME280;42934;54.294;18.598;2024-01-30T05:32:44;102092.44;;;2.13;80.58
57048;BME280;42934;54.294;18.598;2024-01-30T05:35:14;102099.38;;;2.14;80.43
57048;BME280;42934;54.294;18.598;2024-01-30T05:37:43;102105.34;;;2.11;80.34
57048;BME280;42934;54.294;18.598;2024-01-30T05:40:14;102105.31;;;2.10;80.35
57048;BME280;42934;54.294;18.598;2024-01-30T05:42:43;102100.94;;;2.09;80.21
57048;BME280;42934;54.294;18.598;2024-01-30T05:45:13;102103.53;;;2.07;80.34
57048;BME280;42934;54.294;18.598;2024-01-30T05:47:42;102107.91;;;2.10;80.71
57048;BME280;42934;54.294;18.598;2024-01-30T05:50:11;102109.56;;;2.06;80.44
57048;BME280;42934;54.294;18.598;2024-01-30T05:52:41;102100.84;;;2.04;80.32
57048;BME280;42934;54.294;18.598;2024-01-30T05:55:11;102104.28;;;2.03;80.25
57048;BME280;42934;54.294;18.598;2024-01-30T05:57:41;102105.16;;;2.03;80.66
57048;BME280;42934;54.294;18.598;2024-01-30T06:00:11;102095.63;;;2.02;80.55
57048;BME280;42934;54.294;18.598;2024-01-30T06:02:41;102101.72;;;2.04;80.07
57048;BME280;42934;54.294;18.598;2024-01-30T06:05:10;102093.94;;;2.03;80.48
57048;BME280;42934;54.294;18.598;2024-01-30T06:07:39;102100.88;;;2.05;80.14
57048;BME280;42934;54.294;18.598;2024-01-30T06:10:09;102097.47;;;2.07;80.49
57048;BME280;42934;54.294;18.598;2024-01-30T06:12:39;102097.50;;;2.08;80.16
57048;BME280;42934;54.294;18.598;2024-01-30T06:15:10;102096.63;;;2.08;80.10
57048;BME280;42934;54.294;18.598;2024-01-30T06:17:40;102103.53;;;2.07;80.53
57048;BME280;42934;54.294;18.598;2024-01-30T06:20:10;102099.22;;;2.08;80.04
57048;BME280;42934;54.294;18.598;2024-01-30T06:22:39;102102.66;;;2.07;80.31
57048;BME280;42934;54.294;18.598;2024-01-30T06:25:08;102096.59;;;2.06;80.29
57048;BME280;42934;54.294;18.598;2024-01-30T06:27:38;102102.59;;;2.05;79.96
57048;BME280;42934;54.294;18.598;2024-01-30T06:30:07;102102.50;;;2.00;80.05
57048;BME280;42934;54.294;18.598;2024-01-30T06:32:38;102103.28;;;1.98;80.68
57048;BME280;42934;54.294;18.598;2024-01-30T06:35:09;102105.81;;;1.96;80.20
57048;BME280;42934;54.294;18.598;2024-01-30T06:37:38;102106.69;;;1.97;80.58
57048;BME280;42934;54.294;18.598;2024-01-30T06:40:08;102103.22;;;1.95;80.10
57048;BME280;42934;54.294;18.598;2024-01-30T06:42:37;102102.38;;;1.96;79.97
57048;BME280;42934;54.294;18.598;2024-01-30T06:45:07;102098.06;;;1.96;80.15
57048;BME280;42934;54.294;18.598;2024-01-30T06:47:38;102101.56;;;1.98;80.09
57048;BME280;42934;54.294;18.598;2024-01-30T06:50:08;102092.06;;;1.97;79.96
57048;BME280;42934;54.294;18.598;2024-01-30T06:52:37;102093.75;;;1.97;80.46
57048;BME280;42934;54.294;18.598;2024-01-30T06:55:07;102092.78;;;1.93;80.14
57048;BME280;42934;54.294;18.598;2024-01-30T06:57:36;102098.81;;;1.92;80.19
57048;BME280;42934;54.294;18.598;2024-01-30T07:00:07;102097.94;;;1.92;80.31
57048;BME280;42934;54.294;18.598;2024-01-30T07:02:37;102097.94;;;1.92;80.50
57048;BME280;42934;54.294;18.598;2024-01-30T07:05:07;102095.38;;;1.92;80.43
57048;BME280;42934;54.294;18.598;2024-01-30T07:07:36;102089.31;;;1.91;79.88
57048;BME280;42934;54.294;18.598;2024-01-30T07:10:07;102084.16;;;1.93;80.10
57048;BME280;42934;54.294;18.598;2024-01-30T07:12:37;102092.69;;;1.89;80.14
57048;BME280;42934;54.294;18.598;2024-01-30T07:15:06;102084.88;;;1.87;80.28
57048;BME280;42934;54.294;18.598;2024-01-30T07:17:37;102090.91;;;1.88;80.00
57048;BME280;42934;54.294;18.598;2024-01-30T07:20:08;102095.19;;;1.86;80.66
57048;BME280;42934;54.294;18.598;2024-01-30T07:22:44;102088.34;;;1.88;80.93
57048;BME280;42934;54.294;18.598;2024-01-30T07:25:13;102075.34;;;1.86;80.17
57048;BME280;42934;54.294;18.598;2024-01-30T07:27:43;102080.53;;;1.86;80.31
57048;BME280;42934;54.294;18.598;2024-01-30T07:30:13;102082.13;;;1.81;80.79
57048;BME280;42934;54.294;18.598;2024-01-30T07:32:43;102086.59;;;1.87;80.78
57048;BME280;42934;54.294;18.598;2024-01-30T07:35:13;102065.72;;;1.82;81.25
57048;BME280;42934;54.294;18.598;2024-01-30T07:37:42;102079.81;;;1.92;80.76
57048;BME280;42934;54.294;18.598;2024-01-30T07:40:11;102082.19;;;1.83;81.38
57048;BME280;42934;54.294;18.598;2024-01-30T07:42:40;102076.88;;;1.78;81.30
57048;BME280;42934;54.294;18.598;2024-01-30T07:45:10;102076.00;;;1.79;81.76
57048;BME280;42934;54.294;18.598;2024-01-30T07:47:39;102078.66;;;1.80;81.48
57048;BME280;42934;54.294;18.598;2024-01-30T07:50:10;102084.88;;;1.87;81.58
57048;BME280;42934;54.294;18.598;2024-01-30T07:52:39;102080.38;;;1.80;81.45
57048;BME280;42934;54.294;18.598;2024-01-30T07:55:09;102082.19;;;1.84;81.66
57048;BME280;42934;54.294;18.598;2024-01-30T07:57:39;102080.69;;;1.92;81.33
57048;BME280;42934;54.294;18.598;2024-01-30T08:00:09;102078.75;;;1.85;81.99
57048;BME280;42934;54.294;18.598;2024-01-30T08:02:38;102078.91;;;1.90;81.39
57048;BME280;42934;54.294;18.598;2024-01-30T08:05:09;102072.91;;;1.92;81.26
57048;BME280;42934;54.294;18.598;2024-01-30T08:07:40;102074.59;;;1.90;81.58
57048;BME280;42934;54.294;18.598;2024-01-30T08:10:12;102071.44;;;2.02;81.54
57048;BME280;42934;54.294;18.598;2024-01-30T08:12:41;102074.94;;;2.04;81.28
57048;BME280;42934;54.294;18.598;2024-01-30T08:15:11;102070.34;;;1.92;81.41
57048;BME280;42934;54.294;18.598;2024-01-30T08:17:41;102072.38;;;2.05;81.52
57048;BME280;42934;54.294;18.598;2024-01-30T08:20:12;102073.16;;;2.01;81.74
57048;BME280;42934;54.294;18.598;2024-01-30T08:22:41;102072.59;;;2.13;81.66
57048;BME280;42934;54.294;18.598;2024-01-30T08:25:11;102067.59;;;2.21;81.57
57048;BME280;42934;54.294;18.598;2024-01-30T08:27:40;102069.47;;;2.26;81.05
57048;BME280;42934;54.294;18.598;2024-01-30T08:30:10;102066.97;;;2.31;80.94
57048;BME280;42934;54.294;18.598;2024-01-30T08:32:39;102071.31;;;2.32;81.39
57048;BME280;42934;54.294;18.598;2024-01-30T08:35:10;102068.84;;;2.37;80.76
57048;BME280;42934;54.294;18.598;2024-01-30T08:37:42;102068.84;;;2.37;81.14
57048;BME280;42934;54.294;18.598;2024-01-30T08:40:11;102075.88;;;2.42;81.16
57048;BME280;42934;54.294;18.598;2024-01-30T08:42:40;102068.97;;;2.41;81.19
57048;BME280;42934;54.294;18.598;2024-01-30T08:45:10;102073.38;;;2.45;80.67
57048;BME280;42934;54.294;18.598;2024-01-30T08:47:40;102072.56;;;2.49;80.88
57048;BME280;42934;54.294;18.598;2024-01-30T08:50:11;102084.81;;;2.55;80.91
57048;BME280;42934;54.294;18.598;2024-01-30T08:52:40;102090.94;;;2.59;80.97
57048;BME280;42934;54.294;18.598;2024-01-30T08:55:10;102086.75;;;2.64;80.74
57048;BME280;42934;54.294;18.598;2024-01-30T08:57:39;102087.75;;;2.70;80.73
57048;BME280;42934;54.294;18.598;2024-01-30T09:00:09;102080.16;;;2.78;80.48
57048;BME280;42934;54.294;18.598;2024-01-30T09:02:38;102081.94;;;2.81;80.04
57048;BME280;42934;54.294;18.598;2024-01-30T09:05:08;102082.72;;;2.77;80.56
57048;BME280;42934;54.294;18.598;2024-01-30T09:07:39;102082.88;;;2.83;80.64
57048;BME280;42934;54.294;18.598;2024-01-30T09:10:09;102089.84;;;2.87;80.46
57048;BME280;42934;54.294;18.598;2024-01-30T09:12:41;102092.63;;;2.94;80.93
57048;BME280;42934;54.294;18.598;2024-01-30T09:15:11;102096.91;;;2.94;80.89
57048;BME280;42934;54.294;18.598;2024-01-30T09:17:40;102086.72;;;3.02;80.83
57048;BME280;42934;54.294;18.598;2024-01-30T09:20:10;102075.63;;;3.09;80.89
57048;BME280;42934;54.294;18.598;2024-01-30T09:22:41;102075.72;;;3.13;80.45
57048;BME280;42934;54.294;18.598;2024-01-30T09:25:10;102077.59;;;3.21;80.50
57048;BME280;42934;54.294;18.598;2024-01-30T09:27:39;102071.56;;;3.22;80.42
57048;BME280;42934;54.294;18.598;2024-01-30T09:30:09;102078.63;;;3.29;80.51
57048;BME280;42934;54.294;18.598;2024-01-30T09:32:40;102071.88;;;3.35;80.54
57048;BME280;42934;54.294;18.598;2024-01-30T09:35:10;102075.44;;;3.42;80.40
57048;BME280;42934;54.294;18.598;2024-01-30T09:37:40;102076.41;;;3.47;80.69
57048;BME280;42934;54.294;18.598;2024-01-30T09:40:10;102073.91;;;3.52;80.81
57048;BME280;42934;54.294;18.598;2024-01-30T09:42:41;102076.59;;;3.56;80.75
57048;BME280;42934;54.294;18.598;2024-01-30T09:45:14;102074.91;;;3.60;80.64
57048;BME280;42934;54.294;18.598;2024-01-30T09:47:44;102072.38;;;3.63;81.01
57048;BME280;42934;54.294;18.598;2024-01-30T09:50:15;102078.53;;;3.68;81.45
57048;BME280;42934;54.294;18.598;2024-01-30T09:52:46;102074.28;;;3.72;80.98
57048;BME280;42934;54.294;18.598;2024-01-30T09:55:16;102071.75;;;3.76;81.14
57048;BME280;42934;54.294;18.598;2024-01-30T09:57:45;102066.59;;;3.79;81.32
57048;BME280;42934;54.294;18.598;2024-01-30T10:00:15;102063.22;;;3.83;81.40
57048;BME280;42934;54.294;18.598;2024-01-30T10:02:45;102059.81;;;3.87;81.25
57048;BME280;42934;54.294;18.598;2024-01-30T10:05:16;102054.69;;;3.91;82.03
57048;BME280;42934;54.294;18.598;2024-01-30T10:07:53;102052.19;;;3.97;81.18
57048;BME280;42934;54.294;18.598;2024-01-30T10:10:24;102047.03;;;4.00;81.71
57048;BME280;42934;54.294;18.598;2024-01-30T10:12:54;102042.69;;;3.99;82.12
57048;BME280;42934;54.294;18.598;2024-01-30T10:15:23;102046.31;;;4.08;81.55
57048;BME280;42934;54.294;18.598;2024-01-30T10:17:52;102041.22;;;4.15;81.74
57048;BME280;42934;54.294;18.598;2024-01-30T10:20:22;102041.34;;;4.21;82.21
57048;BME280;42934;54.294;18.598;2024-01-30T10:22:55;102046.63;;;4.27;81.95
57048;BME280;42934;54.294;18.598;2024-01-30T10:25:25;102041.53;;;4.33;81.76
57048;BME280;42934;54.294;18.598;2024-01-30T10:27:54;102035.53;;;4.39;81.72
57048;BME280;42934;54.294;18.598;2024-01-30T10:30:24;102040.81;;;4.43;82.15
57048;BME280;42934;54.294;18.598;2024-01-30T10:32:53;102034.81;;;4.47;82.32
57048;BME280;42934;54.294;18.598;2024-01-30T10:35:23;102043.53;;;4.52;82.22
57048;BME280;42934;54.294;18.598;2024-01-30T10:37:54;102037.53;;;4.58;82.48
57048;BME280;42934;54.294;18.598;2024-01-30T10:40:28;102038.53;;;4.65;82.23
57048;BME280;42934;54.294;18.598;2024-01-30T10:42:59;102036.88;;;4.73;82.42
57048;BME280;42934;54.294;18.598;2024-01-30T10:45:32;102038.69;;;4.77;82.33
57048;BME280;42934;54.294;18.598;2024-01-30T10:48:04;102030.09;;;4.83;82.50
57048;BME280;42934;54.294;18.598;2024-01-30T10:50:35;102025.84;;;4.89;81.77
57048;BME280;42934;54.294;18.598;2024-01-30T10:53:19;102022.47;;;4.99;81.98
57048;BME280;42934;54.294;18.598;2024-01-30T10:55:50;102020.78;;;5.01;80.79
57048;BME280;42934;54.294;18.598;2024-01-30T10:58:20;102019.13;;;5.07;80.96
57048;BME280;42934;54.294;18.598;2024-01-30T11:00:50;102018.28;;;5.09;77.73
57048;BME280;42934;54.294;18.598;2024-01-30T11:03:20;102018.41;;;5.23;79.94
57048;BME280;42934;54.294;18.598;2024-01-30T11:05:50;102018.47;;;5.28;80.26
57048;BME280;42934;54.294;18.598;2024-01-30T11:08:24;102012.44;;;5.30;79.39
57048;BME280;42934;54.294;18.598;2024-01-30T11:10:56;102012.56;;;5.42;79.65
57048;BME280;42934;54.294;18.598;2024-01-30T11:13:27;102014.53;;;5.66;78.72
57048;BME280;42934;54.294;18.598;2024-01-30T11:16:01;102011.63;;;6.30;77.90
57048;BME280;42934;54.294;18.598;2024-01-30T11:18:32;101999.75;;;6.88;74.78
57048;BME280;42934;54.294;18.598;2024-01-30T11:21:04;101998.19;;;7.33;74.32
57048;BME280;42934;54.294;18.598;2024-01-30T11:23:35;101996.47;;;7.50;73.69
57048;BME280;42934;54.294;18.598;2024-01-30T11:26:05;102003.41;;;7.36;74.26
57048;BME280;42934;54.294;18.598;2024-01-30T11:28:38;101999.03;;;7.33;74.39
57048;BME280;42934;54.294;18.598;2024-01-30T11:31:08;101991.19;;;7.33;74.97
57048;BME280;42934;54.294;18.598;2024-01-30T11:33:37;101989.44;;;7.26;74.62
57048;BME280;42934;54.294;18.598;2024-01-30T11:36:07;101979.84;;;7.23;75.18
57048;BME280;42934;54.294;18.598;2024-01-30T11:38:38;101975.50;;;7.22;75.61
57048;BME280;42934;54.294;18.598;2024-01-30T11:41:10;101972.00;;;7.19;75.11
57048;BME280;42934;54.294;18.598;2024-01-30T11:43:39;101967.63;;;7.07;75.60
57048;BME280;42934;54.294;18.598;2024-01-30T11:46:08;101960.63;;;7.00;75.13
57048;BME280;42934;54.294;18.598;2024-01-30T11:48:38;101959.75;;;6.99;75.37
57048;BME280;42934;54.294;18.598;2024-01-30T11:51:07;101960.56;;;6.80;73.67
57048;BME280;42934;54.294;18.598;2024-01-30T11:53:38;101954.50;;;6.86;74.35
57048;BME280;42934;54.294;18.598;2024-01-30T11:56:07;101957.97;;;6.85;74.41
57048;BME280;42934;54.294;18.598;2024-01-30T11:58:36;101951.88;;;6.87;74.00
57048;BME280;42934;54.294;18.598;2024-01-30T12:01:06;101944.94;;;6.89;73.77
57048;BME280;42934;54.294;18.598;2024-01-30T12:03:35;101944.94;;;6.86;73.56
57048;BME280;42934;54.294;18.598;2024-01-30T12:06:05;101943.16;;;6.79;73.66
57048;BME280;42934;54.294;18.598;2024-01-30T12:08:35;101934.47;;;6.81;74.20
57048;BME280;42934;54.294;18.598;2024-01-30T12:11:07;101937.94;;;6.79;74.39
57048;BME280;42934;54.294;18.598;2024-01-30T12:13:36;101931.88;;;6.83;74.00
57048;BME280;42934;54.294;18.598;2024-01-30T12:16:07;101937.97;;;6.83;74.24
57048;BME280;42934;54.294;18.598;2024-01-30T12:18:36;101937.94;;;6.79;73.72
57048;BME280;42934;54.294;18.598;2024-01-30T12:21:05;101934.44;;;6.78;73.65
57048;BME280;42934;54.294;18.598;2024-01-30T12:23:36;101928.38;;;6.84;73.94
57048;BME280;42934;54.294;18.598;2024-01-30T12:26:07;101931.88;;;6.83;73.45
57048;BME280;42934;54.294;18.598;2024-01-30T12:28:36;101933.63;;;6.93;73.09
57048;BME280;42934;54.294;18.598;2024-01-30T12:31:05;101937.13;;;7.00;72.85
57048;BME280;42934;54.294;18.598;2024-01-30T12:33:36;101938.91;;;7.07;72.99
57048;BME280;42934;54.294;18.598;2024-01-30T12:36:06;101939.75;;;7.08;73.42
57048;BME280;42934;54.294;18.598;2024-01-30T12:38:36;101931.94;;;7.03;73.32
57048;BME280;42934;54.294;18.598;2024-01-30T12:41:08;101931.03;;;7.09;73.63
57048;BME280;42934;54.294;18.598;2024-01-30T12:43:38;101924.09;;;7.04;73.44
57048;BME280;42934;54.294;18.598;2024-01-30T12:46:08;101924.97;;;7.13;73.49
57048;BME280;42934;54.294;18.598;2024-01-30T12:48:37;101924.97;;;7.13;72.68
57048;BME280;42934;54.294;18.598;2024-01-30T12:51:06;101924.97;;;7.13;73.11
57048;BME280;42934;54.294;18.598;2024-01-30T12:53:35;101928.47;;;7.13;72.92
57048;BME280;42934;54.294;18.598;2024-01-30T12:56:05;101923.22;;;7.07;72.58
57048;BME280;42934;54.294;18.598;2024-01-30T12:58:35;101929.31;;;7.17;72.71
57048;BME280;42934;54.294;18.598;2024-01-30T13:01:05;101936.31;;;7.19;72.56
57048;BME280;42934;54.294;18.598;2024-01-30T13:03:34;101929.34;;;7.24;72.43